sensor_id;sensor_type;location;lat;lon;timestamp;temperature;humidity
12819;DHT22;6474;53.474;9.894;2022-12-07T00:01:18;3.50;91.60
12819;DHT22;6474;53.474;9.894;2022-12-07T00:03:47;3.50;91.60
12819;DHT22;6474;53.474;9.894;2022-12-07T00:06:17;3.50;91.60
12819;DHT22;6474;53.474;9.894;2022-12-07T00:08:45;3.50;91.50
12819;DHT22;6474;53.474;9.894;2022-12-07T00:11:15;3.50;91.50
12819;DHT22;6474;53.474;9.894;2022-12-07T00:13:43;3.50;91.50
12819;DHT22;6474;53.474;9.894;2022-12-07T00:16:14;3.50;91.40
12819;DHT22;6474;53.474;9.894;2022-12-07T00:18:42;3.50;91.40
12819;DHT22;6474;53.474;9.894;2022-12-07T00:21:12;3.50;91.50
12819;DHT22;6474;53.474;9.894;2022-12-07T00:23:42;3.50;91.50
12819;DHT22;6474;53.474;9.894;2022-12-07T00:26:12;3.50;91.50
12819;DHT22;6474;53.474;9.894;2022-12-07T00:28:40;3.50;91.40
12819;DHT22;6474;53.474;9.894;2022-12-07T00:31:10;3.50;91.50
12819;DHT22;6474;53.474;9.894;2022-12-07T00:33:39;3.50;91.50
12819;DHT22;6474;53.474;9.894;2022-12-07T00:36:09;3.50;91.40
12819;DHT22;6474;53.474;9.894;2022-12-07T00:38:38;3.40;91.40
12819;DHT22;6474;53.474;9.894;2022-12-07T00:41:08;3.40;91.30
12819;DHT22;6474;53.474;9.894;2022-12-07T00:43:36;3.50;91.30
12819;DHT22;6474;53.474;9.894;2022-12-07T00:46:04;3.40;91.20
12819;DHT22;6474;53.474;9.894;2022-12-07T00:48:33;3.40;91.20
12819;DHT22;6474;53.474;9.894;2022-12-07T00:51:03;3.30;91.30
12819;DHT22;6474;53.474;9.894;2022-12-07T00:53:31;3.30;91.30
12819;DHT22;6474;53.474;9.894;2022-12-07T00:56:07;3.40;91.40
12819;DHT22;6474;53.474;9.894;2022-12-07T00:58:36;3.40;91.50
12819;DHT22;6474;53.474;9.894;2022-12-07T01:01:06;3.30;91.40
12819;DHT22;6474;53.474;9.894;2022-12-07T01:03:34;3.40;91.50
12819;DHT22;6474;53.474;9.894;2022-12-07T01:06:05;3.40;91.50
12819;DHT22;6474;53.474;9.894;2022-12-07T01:08:33;3.50;91.60
12819;DHT22;6474;53.474;9.894;2022-12-07T01:11:03;3.50;91.60
12819;DHT22;6474;53.474;9.894;2022-12-07T01:13:31;3.50;91.50
12819;DHT22;6474;53.474;9.894;2022-12-07T01:16:01;3.50;91.50
12819;DHT22;6474;53.474;9.894;2022-12-07T01:18:33;3.50;91.50
12819;DHT22;6474;53.474;9.894;2022-12-07T01:21:10;3.50;91.50
12819;DHT22;6474;53.474;9.894;2022-12-07T01:23:39;3.50;91.50
12819;DHT22;6474;53.474;9.894;2022-12-07T01:26:10;3.50;91.60
12819;DHT22;6474;53.474;9.894;2022-12-07T01:28:38;3.50;91.60
12819;DHT22;6474;53.474;9.894;2022-12-07T01:31:11;3.60;91.60
12819;DHT22;6474;53.474;9.894;2022-12-07T01:33:43;3.60;91.50
12819;DHT22;6474;53.474;9.894;2022-12-07T01:36:15;3.60;91.40
12819;DHT22;6474;53.474;9.894;2022-12-07T01:38:46;3.60;91.30
12819;DHT22;6474;53.474;9.894;2022-12-07T01:41:14;3.60;91.30
12819;DHT22;6474;53.474;9.894;2022-12-07T01:44:08;3.50;91.20
12819;DHT22;6474;53.474;9.894;2022-12-07T01:46:37;3.50;91.20
12819;DHT22;6474;53.474;9.894;2022-12-07T01:49:07;3.40;91.10
12819;DHT22;6474;53.474;9.894;2022-12-07T01:51:38;3.40;91.10
12819;DHT22;6474;53.474;9.894;2022-12-07T01:54:08;3.40;91.20
12819;DHT22;6474;53.474;9.894;2022-12-07T01:56:38;3.40;91.20
12819;DHT22;6474;53.474;9.894;2022-12-07T01:59:08;3.40;91.20
12819;DHT22;6474;53.474;9.894;2022-12-07T02:01:36;3.30;91.10
12819;DHT22;6474;53.474;9.894;2022-12-07T02:04:04;3.30;91.10
12819;DHT22;6474;53.474;9.894;2022-12-07T02:06:34;3.20;91.10
12819;DHT22;6474;53.474;9.894;2022-12-07T02:09:04;3.20;91.10
12819;DHT22;6474;53.474;9.894;2022-12-07T02:11:32;3.20;91.10
12819;DHT22;6474;53.474;9.894;2022-12-07T02:14:00;3.20;91.10
12819;DHT22;6474;53.474;9.894;2022-12-07T02:16:34;3.20;91.10
12819;DHT22;6474;53.474;9.894;2022-12-07T02:19:22;3.10;91.10
12819;DHT22;6474;53.474;9.894;2022-12-07T02:21:57;3.10;91.10
12819;DHT22;6474;53.474;9.894;2022-12-07T02:24:43;3.10;91.10
12819;DHT22;6474;53.474;9.894;2022-12-07T02:27:38;3.00;91.10
12819;DHT22;6474;53.474;9.894;2022-12-07T02:30:09;3.00;91.10
12819;DHT22;6474;53.474;9.894;2022-12-07T02:32:44;2.90;91.00
12819;DHT22;6474;53.474;9.894;2022-12-07T02:35:18;2.90;91.00
12819;DHT22;6474;53.474;9.894;2022-12-07T02:37:53;2.90;91.10
12819;DHT22;6474;53.474;9.894;2022-12-07T02:40:28;2.90;91.10
12819;DHT22;6474;53.474;9.894;2022-12-07T02:43:01;2.90;91.10
12819;DHT22;6474;53.474;9.894;2022-12-07T02:45:35;2.90;91.10
12819;DHT22;6474;53.474;9.894;2022-12-07T02:48:05;2.90;91.10
12819;DHT22;6474;53.474;9.894;2022-12-07T02:50:34;2.90;91.10
12819;DHT22;6474;53.474;9.894;2022-12-07T02:53:02;2.80;91.00
12819;DHT22;6474;53.474;9.894;2022-12-07T02:55:34;2.90;91.10
12819;DHT22;6474;53.474;9.894;2022-12-07T02:58:23;2.90;91.10
12819;DHT22;6474;53.474;9.894;2022-12-07T03:01:04;2.90;91.00
12819;DHT22;6474;53.474;9.894;2022-12-07T03:03:37;2.80;91.00
12819;DHT22;6474;53.474;9.894;2022-12-07T03:06:12;2.80;91.00
12819;DHT22;6474;53.474;9.894;2022-12-07T03:08:51;2.80;91.30
12819;DHT22;6474;53.474;9.894;2022-12-07T03:11:24;2.80;91.00
12819;DHT22;6474;53.474;9.894;2022-12-07T03:13:58;2.80;91.00
12819;DHT22;6474;53.474;9.894;2022-12-07T03:16:31;2.70;91.00
12819;DHT22;6474;53.474;9.894;2022-12-07T03:19:03;2.70;91.00
12819;DHT22;6474;53.474;9.894;2022-12-07T03:21:35;2.70;91.00
12819;DHT22;6474;53.474;9.894;2022-12-07T03:24:08;2.70;91.10
12819;DHT22;6474;53.474;9.894;2022-12-07T03:26:39;2.70;91.10
12819;DHT22;6474;53.474;9.894;2022-12-07T03:29:13;2.70;91.00
12819;DHT22;6474;53.474;9.894;2022-12-07T03:31:47;2.70;91.00
12819;DHT22;6474;53.474;9.894;2022-12-07T03:34:19;2.70;91.00
12819;DHT22;6474;53.474;9.894;2022-12-07T03:36:52;2.70;91.00
12819;DHT22;6474;53.474;9.894;2022-12-07T03:39:26;2.60;91.00
12819;DHT22;6474;53.474;9.894;2022-12-07T03:41:56;2.60;90.90
12819;DHT22;6474;53.474;9.894;2022-12-07T03:44:26;2.60;91.00
12819;DHT22;6474;53.474;9.894;2022-12-07T03:47:01;2.60;91.00
12819;DHT22;6474;53.474;9.894;2022-12-07T03:49:32;2.50;90.90
12819;DHT22;6474;53.474;9.894;2022-12-07T03:52:06;2.50;90.90
12819;DHT22;6474;53.474;9.894;2022-12-07T03:54:39;2.50;91.00
12819;DHT22;6474;53.474;9.894;2022-12-07T03:57:09;2.40;90.90
12819;DHT22;6474;53.474;9.894;2022-12-07T03:59:38;2.40;90.90
12819;DHT22;6474;53.474;9.894;2022-12-07T04:02:11;2.40;91.00
12819;DHT22;6474;53.474;9.894;2022-12-07T04:04:40;2.40;91.00
12819;DHT22;6474;53.474;9.894;2022-12-07T04:07:09;2.40;91.00
12819;DHT22;6474;53.474;9.894;2022-12-07T04:09:37;2.30;91.00
12819;DHT22;6474;53.474;9.894;2022-12-07T04:12:05;2.30;91.00
12819;DHT22;6474;53.474;9.894;2022-12-07T04:14:33;2.30;91.00
12819;DHT22;6474;53.474;9.894;2022-12-07T04:17:01;2.20;91.00
12819;DHT22;6474;53.474;9.894;2022-12-07T04:19:33;2.20;91.00
12819;DHT22;6474;53.474;9.894;2022-12-07T04:22:02;2.20;91.00
12819;DHT22;6474;53.474;9.894;2022-12-07T04:24:30;2.20;91.00
12819;DHT22;6474;53.474;9.894;2022-12-07T04:26:58;2.20;91.00
12819;DHT22;6474;53.474;9.894;2022-12-07T04:29:26;2.20;91.10
12819;DHT22;6474;53.474;9.894;2022-12-07T04:31:54;2.20;91.10
12819;DHT22;6474;53.474;9.894;2022-12-07T04:34:22;2.20;91.10
12819;DHT22;6474;53.474;9.894;2022-12-07T04:36:51;2.20;91.10
12819;DHT22;6474;53.474;9.894;2022-12-07T04:39:21;2.20;91.10
12819;DHT22;6474;53.474;9.894;2022-12-07T04:41:49;2.20;91.10
12819;DHT22;6474;53.474;9.894;2022-12-07T04:44:18;2.20;91.10
12819;DHT22;6474;53.474;9.894;2022-12-07T04:46:46;2.20;91.10
12819;DHT22;6474;53.474;9.894;2022-12-07T04:49:15;2.20;91.10
12819;DHT22;6474;53.474;9.894;2022-12-07T04:51:43;2.20;91.00
12819;DHT22;6474;53.474;9.894;2022-12-07T04:54:13;2.20;91.00
12819;DHT22;6474;53.474;9.894;2022-12-07T04:56:42;2.20;91.10
12819;DHT22;6474;53.474;9.894;2022-12-07T04:59:10;2.20;91.10
12819;DHT22;6474;53.474;9.894;2022-12-07T05:01:38;2.30;91.10
12819;DHT22;6474;53.474;9.894;2022-12-07T05:04:07;2.30;91.10
12819;DHT22;6474;53.474;9.894;2022-12-07T05:06:35;2.30;91.00
12819;DHT22;6474;53.474;9.894;2022-12-07T05:09:03;2.30;91.00
12819;DHT22;6474;53.474;9.894;2022-12-07T05:11:33;2.30;91.00
12819;DHT22;6474;53.474;9.894;2022-12-07T05:14:09;2.30;91.00
12819;DHT22;6474;53.474;9.894;2022-12-07T05:16:38;2.20;91.00
12819;DHT22;6474;53.474;9.894;2022-12-07T05:19:07;2.20;91.00
12819;DHT22;6474;53.474;9.894;2022-12-07T05:21:35;2.20;91.00
12819;DHT22;6474;53.474;9.894;2022-12-07T05:24:03;2.20;91.00
12819;DHT22;6474;53.474;9.894;2022-12-07T05:26:33;2.20;91.00
12819;DHT22;6474;53.474;9.894;2022-12-07T05:29:02;2.20;91.00
12819;DHT22;6474;53.474;9.894;2022-12-07T05:31:30;2.10;90.90
12819;DHT22;6474;53.474;9.894;2022-12-07T05:33:58;2.20;91.00
12819;DHT22;6474;53.474;9.894;2022-12-07T05:36:26;2.10;90.90
12819;DHT22;6474;53.474;9.894;2022-12-07T05:38:57;2.10;90.90
12819;DHT22;6474;53.474;9.894;2022-12-07T05:41:25;2.10;90.90
12819;DHT22;6474;53.474;9.894;2022-12-07T05:44:12;2.10;90.90
12819;DHT22;6474;53.474;9.894;2022-12-07T05:46:41;2.10;90.90
12819;DHT22;6474;53.474;9.894;2022-12-07T05:49:09;2.10;90.90
12819;DHT22;6474;53.474;9.894;2022-12-07T05:51:37;2.10;91.00
12819;DHT22;6474;53.474;9.894;2022-12-07T05:54:05;2.10;91.00
12819;DHT22;6474;53.474;9.894;2022-12-07T05:56:33;2.10;91.00
12819;DHT22;6474;53.474;9.894;2022-12-07T05:59:00;2.10;91.10
12819;DHT22;6474;53.474;9.894;2022-12-07T06:01:47;2.10;91.10
12819;DHT22;6474;53.474;9.894;2022-12-07T06:04:16;2.10;91.10
12819;DHT22;6474;53.474;9.894;2022-12-07T06:06:47;2.10;91.10
12819;DHT22;6474;53.474;9.894;2022-12-07T06:09:15;2.10;91.10
12819;DHT22;6474;53.474;9.894;2022-12-07T06:11:42;2.10;91.00
12819;DHT22;6474;53.474;9.894;2022-12-07T06:14:28;2.10;91.00
12819;DHT22;6474;53.474;9.894;2022-12-07T06:16:57;2.10;91.00
12819;DHT22;6474;53.474;9.894;2022-12-07T06:19:27;2.10;90.90
12819;DHT22;6474;53.474;9.894;2022-12-07T06:21:55;2.10;90.90
12819;DHT22;6474;53.474;9.894;2022-12-07T06:24:22;2.00;90.90
12819;DHT22;6474;53.474;9.894;2022-12-07T06:26:50;2.00;90.90
12819;DHT22;6474;53.474;9.894;2022-12-07T06:29:21;2.00;90.90
12819;DHT22;6474;53.474;9.894;2022-12-07T06:31:49;2.00;91.00
12819;DHT22;6474;53.474;9.894;2022-12-07T06:34:22;2.00;91.00
12819;DHT22;6474;53.474;9.894;2022-12-07T06:36:51;2.00;91.00
12819;DHT22;6474;53.474;9.894;2022-12-07T06:39:22;1.90;91.00
12819;DHT22;6474;53.474;9.894;2022-12-07T06:41:50;1.90;91.00
12819;DHT22;6474;53.474;9.894;2022-12-07T06:44:19;1.90;91.00
12819;DHT22;6474;53.474;9.894;2022-12-07T06:46:48;1.90;91.10
12819;DHT22;6474;53.474;9.894;2022-12-07T06:49:16;1.90;91.10
12819;DHT22;6474;53.474;9.894;2022-12-07T06:51:45;1.90;91.10
12819;DHT22;6474;53.474;9.894;2022-12-07T06:54:14;1.90;91.10
12819;DHT22;6474;53.474;9.894;2022-12-07T06:56:42;1.90;91.20
12819;DHT22;6474;53.474;9.894;2022-12-07T06:59:10;2.00;91.20
12819;DHT22;6474;53.474;9.894;2022-12-07T07:01:38;2.00;91.20
12819;DHT22;6474;53.474;9.894;2022-12-07T07:04:06;2.00;91.10
12819;DHT22;6474;53.474;9.894;2022-12-07T07:06:34;2.00;91.10
12819;DHT22;6474;53.474;9.894;2022-12-07T07:09:03;2.00;91.10
12819;DHT22;6474;53.474;9.894;2022-12-07T07:11:31;2.00;91.10
12819;DHT22;6474;53.474;9.894;2022-12-07T07:13:58;2.00;91.10
12819;DHT22;6474;53.474;9.894;2022-12-07T07:16:29;2.00;91.10
12819;DHT22;6474;53.474;9.894;2022-12-07T07:18:57;2.00;91.10
12819;DHT22;6474;53.474;9.894;2022-12-07T07:21:25;2.10;91.20
12819;DHT22;6474;53.474;9.894;2022-12-07T07:23:53;2.00;91.20
12819;DHT22;6474;53.474;9.894;2022-12-07T07:26:22;2.10;91.20
12819;DHT22;6474;53.474;9.894;2022-12-07T07:28:50;2.10;91.30
12819;DHT22;6474;53.474;9.894;2022-12-07T07:31:18;2.10;91.30
12819;DHT22;6474;53.474;9.894;2022-12-07T07:33:46;2.10;91.30
12819;DHT22;6474;53.474;9.894;2022-12-07T07:36:14;2.20;91.30
12819;DHT22;6474;53.474;9.894;2022-12-07T07:38:42;2.20;91.20
12819;DHT22;6474;53.474;9.894;2022-12-07T07:41:10;2.20;91.20
12819;DHT22;6474;53.474;9.894;2022-12-07T07:43:39;2.20;91.20
12819;DHT22;6474;53.474;9.894;2022-12-07T07:46:06;2.20;91.20
12819;DHT22;6474;53.474;9.894;2022-12-07T07:48:34;2.20;91.10
12819;DHT22;6474;53.474;9.894;2022-12-07T07:51:05;2.20;91.10
12819;DHT22;6474;53.474;9.894;2022-12-07T07:53:33;2.20;91.10
12819;DHT22;6474;53.474;9.894;2022-12-07T07:56:01;2.20;91.10
12819;DHT22;6474;53.474;9.894;2022-12-07T07:58:29;2.20;91.20
12819;DHT22;6474;53.474;9.894;2022-12-07T08:01:03;2.30;91.20
12819;DHT22;6474;53.474;9.894;2022-12-07T08:03:31;2.30;91.20
12819;DHT22;6474;53.474;9.894;2022-12-07T08:05:59;2.30;91.20
12819;DHT22;6474;53.474;9.894;2022-12-07T08:08:27;2.30;91.20
12819;DHT22;6474;53.474;9.894;2022-12-07T08:10:55;2.30;91.20
12819;DHT22;6474;53.474;9.894;2022-12-07T08:13:23;2.30;91.20
12819;DHT22;6474;53.474;9.894;2022-12-07T08:15:58;2.30;91.20
12819;DHT22;6474;53.474;9.894;2022-12-07T08:18:40;2.40;91.30
12819;DHT22;6474;53.474;9.894;2022-12-07T08:21:11;2.40;91.30
12819;DHT22;6474;53.474;9.894;2022-12-07T08:23:39;2.40;91.20
12819;DHT22;6474;53.474;9.894;2022-12-07T08:26:08;2.40;91.20
12819;DHT22;6474;53.474;9.894;2022-12-07T08:28:37;2.50;91.30
12819;DHT22;6474;53.474;9.894;2022-12-07T08:31:10;2.50;91.30
12819;DHT22;6474;53.474;9.894;2022-12-07T08:33:39;2.50;91.30
12819;DHT22;6474;53.474;9.894;2022-12-07T08:36:09;2.50;91.30
12819;DHT22;6474;53.474;9.894;2022-12-07T08:38:39;2.60;91.40
12819;DHT22;6474;53.474;9.894;2022-12-07T08:41:17;2.60;91.40
12819;DHT22;6474;53.474;9.894;2022-12-07T08:43:45;2.60;91.40
12819;DHT22;6474;53.474;9.894;2022-12-07T08:46:18;2.70;91.40
12819;DHT22;6474;53.474;9.894;2022-12-07T08:48:52;2.80;91.40
12819;DHT22;6474;53.474;9.894;2022-12-07T08:51:21;2.80;91.40
12819;DHT22;6474;53.474;9.894;2022-12-07T08:53:50;2.80;91.40
12819;DHT22;6474;53.474;9.894;2022-12-07T08:56:19;2.90;91.40
12819;DHT22;6474;53.474;9.894;2022-12-07T08:58:48;2.90;91.40
12819;DHT22;6474;53.474;9.894;2022-12-07T09:01:17;2.90;91.40
12819;DHT22;6474;53.474;9.894;2022-12-07T09:03:45;3.00;91.50
12819;DHT22;6474;53.474;9.894;2022-12-07T09:06:13;3.00;91.50
12819;DHT22;6474;53.474;9.894;2022-12-07T09:08:43;3.10;91.50
12819;DHT22;6474;53.474;9.894;2022-12-07T09:11:13;3.10;91.50
12819;DHT22;6474;53.474;9.894;2022-12-07T09:13:41;3.20;91.60
12819;DHT22;6474;53.474;9.894;2022-12-07T09:16:09;3.20;91.60
12819;DHT22;6474;53.474;9.894;2022-12-07T09:18:38;3.20;91.60
12819;DHT22;6474;53.474;9.894;2022-12-07T09:21:06;3.30;91.60
12819;DHT22;6474;53.474;9.894;2022-12-07T09:23:34;3.30;91.60
12819;DHT22;6474;53.474;9.894;2022-12-07T09:26:03;3.30;91.60
12819;DHT22;6474;53.474;9.894;2022-12-07T09:28:36;3.40;91.60
12819;DHT22;6474;53.474;9.894;2022-12-07T09:31:05;3.40;91.60
12819;DHT22;6474;53.474;9.894;2022-12-07T09:33:54;3.40;91.60
12819;DHT22;6474;53.474;9.894;2022-12-07T09:36:24;3.50;91.70
12819;DHT22;6474;53.474;9.894;2022-12-07T09:38:52;3.50;91.70
12819;DHT22;6474;53.474;9.894;2022-12-07T09:41:21;3.60;91.70
12819;DHT22;6474;53.474;9.894;2022-12-07T09:43:50;3.60;91.70
12819;DHT22;6474;53.474;9.894;2022-12-07T09:46:19;3.60;91.70
12819;DHT22;6474;53.474;9.894;2022-12-07T09:48:49;3.70;91.70
12819;DHT22;6474;53.474;9.894;2022-12-07T09:51:20;3.70;91.70
12819;DHT22;6474;53.474;9.894;2022-12-07T09:53:51;3.80;91.80
12819;DHT22;6474;53.474;9.894;2022-12-07T09:56:19;3.80;91.80
12819;DHT22;6474;53.474;9.894;2022-12-07T09:58:48;3.80;91.80
12819;DHT22;6474;53.474;9.894;2022-12-07T10:01:18;3.80;91.80
12819;DHT22;6474;53.474;9.894;2022-12-07T10:03:50;3.90;91.80
12819;DHT22;6474;53.474;9.894;2022-12-07T10:06:20;3.90;91.90
12819;DHT22;6474;53.474;9.894;2022-12-07T10:08:48;3.90;91.90
12819;DHT22;6474;53.474;9.894;2022-12-07T10:11:16;3.90;91.80
12819;DHT22;6474;53.474;9.894;2022-12-07T10:13:46;4.00;91.80
12819;DHT22;6474;53.474;9.894;2022-12-07T10:16:35;4.00;91.80
12819;DHT22;6474;53.474;9.894;2022-12-07T10:19:24;4.00;91.90
12819;DHT22;6474;53.474;9.894;2022-12-07T10:22:15;4.00;91.80
12819;DHT22;6474;53.474;9.894;2022-12-07T10:24:46;4.00;91.80
12819;DHT22;6474;53.474;9.894;2022-12-07T10:27:19;4.00;91.80
12819;DHT22;6474;53.474;9.894;2022-12-07T10:29:49;4.00;91.80
12819;DHT22;6474;53.474;9.894;2022-12-07T10:32:31;3.90;91.70
12819;DHT22;6474;53.474;9.894;2022-12-07T10:35:25;3.90;91.80
12819;DHT22;6474;53.474;9.894;2022-12-07T10:37:55;3.90;91.80
12819;DHT22;6474;53.474;9.894;2022-12-07T10:40:32;3.90;91.90
12819;DHT22;6474;53.474;9.894;2022-12-07T10:43:03;3.90;91.90
12819;DHT22;6474;53.474;9.894;2022-12-07T10:45:32;3.90;91.90
12819;DHT22;6474;53.474;9.894;2022-12-07T10:48:11;3.90;91.90
12819;DHT22;6474;53.474;9.894;2022-12-07T10:50:51;4.00;92.00
12819;DHT22;6474;53.474;9.894;2022-12-07T10:53:32;4.00;91.90
12819;DHT22;6474;53.474;9.894;2022-12-07T10:56:37;4.00;91.90
12819;DHT22;6474;53.474;9.894;2022-12-07T10:59:39;4.00;91.90
12819;DHT22;6474;53.474;9.894;2022-12-07T11:02:25;4.00;91.90
12819;DHT22;6474;53.474;9.894;2022-12-07T11:05:04;4.00;91.80
12819;DHT22;6474;53.474;9.894;2022-12-07T11:07:43;4.10;91.90
12819;DHT22;6474;53.474;9.894;2022-12-07T11:10:28;4.10;91.80
12819;DHT22;6474;53.474;9.894;2022-12-07T11:13:10;4.10;91.80
12819;DHT22;6474;53.474;9.894;2022-12-07T11:15:55;4.10;91.80
12819;DHT22;6474;53.474;9.894;2022-12-07T11:18:29;4.10;91.90
12819;DHT22;6474;53.474;9.894;2022-12-07T11:21:06;4.10;91.80
12819;DHT22;6474;53.474;9.894;2022-12-07T11:23:46;4.10;91.80
12819;DHT22;6474;53.474;9.894;2022-12-07T11:26:26;4.10;91.80
12819;DHT22;6474;53.474;9.894;2022-12-07T11:29:13;4.10;91.80
12819;DHT22;6474;53.474;9.894;2022-12-07T11:31:54;4.10;91.80
12819;DHT22;6474;53.474;9.894;2022-12-07T11:34:33;4.20;91.90
12819;DHT22;6474;53.474;9.894;2022-12-07T11:37:09;4.20;91.90
12819;DHT22;6474;53.474;9.894;2022-12-07T11:39:43;4.20;91.90
12819;DHT22;6474;53.474;9.894;2022-12-07T11:42:21;4.20;91.90
12819;DHT22;6474;53.474;9.894;2022-12-07T11:44:52;4.20;91.90
12819;DHT22;6474;53.474;9.894;2022-12-07T11:47:27;4.20;91.90
12819;DHT22;6474;53.474;9.894;2022-12-07T11:50:05;4.20;91.90
12819;DHT22;6474;53.474;9.894;2022-12-07T11:52:44;4.20;91.80
12819;DHT22;6474;53.474;9.894;2022-12-07T11:55:19;4.20;91.70
12819;DHT22;6474;53.474;9.894;2022-12-07T11:57:56;4.20;91.70
12819;DHT22;6474;53.474;9.894;2022-12-07T12:00:25;4.20;91.70
12819;DHT22;6474;53.474;9.894;2022-12-07T12:02:58;4.20;91.70
12819;DHT22;6474;53.474;9.894;2022-12-07T12:05:28;4.20;91.80
12819;DHT22;6474;53.474;9.894;2022-12-07T12:08:03;4.20;91.80
12819;DHT22;6474;53.474;9.894;2022-12-07T12:10:56;4.10;91.80
12819;DHT22;6474;53.474;9.894;2022-12-07T12:17:24;4.20;91.90
12819;DHT22;6474;53.474;9.894;2022-12-07T12:20:00;4.20;91.90
12819;DHT22;6474;53.474;9.894;2022-12-07T12:22:34;4.20;91.90
12819;DHT22;6474;53.474;9.894;2022-12-07T12:25:06;4.20;91.80
12819;DHT22;6474;53.474;9.894;2022-12-07T12:27:37;4.10;91.70
12819;DHT22;6474;53.474;9.894;2022-12-07T12:30:25;4.20;91.80
12819;DHT22;6474;53.474;9.894;2022-12-07T12:33:02;4.20;91.80
12819;DHT22;6474;53.474;9.894;2022-12-07T12:35:32;4.20;91.80
12819;DHT22;6474;53.474;9.894;2022-12-07T12:38:24;4.20;91.80
12819;DHT22;6474;53.474;9.894;2022-12-07T12:40:53;4.20;91.80
12819;DHT22;6474;53.474;9.894;2022-12-07T12:43:41;4.20;91.80
12819;DHT22;6474;53.474;9.894;2022-12-07T12:46:44;4.30;91.80
12819;DHT22;6474;53.474;9.894;2022-12-07T12:49:36;4.30;91.80
12819;DHT22;6474;53.474;9.894;2022-12-07T12:58:39;4.40;91.80
12819;DHT22;6474;53.474;9.894;2022-12-07T13:01:38;4.40;91.80
12819;DHT22;6474;53.474;9.894;2022-12-07T13:07:52;4.40;91.70
12819;DHT22;6474;53.474;9.894;2022-12-07T13:10:40;4.40;91.70
12819;DHT22;6474;53.474;9.894;2022-12-07T13:13:34;4.40;91.70
12819;DHT22;6474;53.474;9.894;2022-12-07T13:16:38;4.30;91.60
12819;DHT22;6474;53.474;9.894;2022-12-07T13:22:48;4.30;91.60
12819;DHT22;6474;53.474;9.894;2022-12-07T13:25:29;4.30;91.60
12819;DHT22;6474;53.474;9.894;2022-12-07T13:28:02;4.30;91.50
12819;DHT22;6474;53.474;9.894;2022-12-07T13:30:30;4.20;91.50
12819;DHT22;6474;53.474;9.894;2022-12-07T13:32:59;4.20;91.50
12819;DHT22;6474;53.474;9.894;2022-12-07T13:35:32;4.10;91.40
12819;DHT22;6474;53.474;9.894;2022-12-07T13:38:04;4.10;91.40
12819;DHT22;6474;53.474;9.894;2022-12-07T13:40:33;4.00;91.40
12819;DHT22;6474;53.474;9.894;2022-12-07T13:43:03;4.00;91.40
12819;DHT22;6474;53.474;9.894;2022-12-07T13:45:32;4.00;91.50
12819;DHT22;6474;53.474;9.894;2022-12-07T13:48:20;3.90;91.40
12819;DHT22;6474;53.474;9.894;2022-12-07T13:50:56;3.90;91.40
12819;DHT22;6474;53.474;9.894;2022-12-07T13:53:25;3.90;91.40
12819;DHT22;6474;53.474;9.894;2022-12-07T13:55:59;3.80;91.40
12819;DHT22;6474;53.474;9.894;2022-12-07T13:58:30;3.80;91.40
12819;DHT22;6474;53.474;9.894;2022-12-07T14:00:59;3.80;91.40
12819;DHT22;6474;53.474;9.894;2022-12-07T14:03:31;3.80;91.50
12819;DHT22;6474;53.474;9.894;2022-12-07T14:06:20;3.80;91.50
12819;DHT22;6474;53.474;9.894;2022-12-07T14:09:14;3.80;91.50
12819;DHT22;6474;53.474;9.894;2022-12-07T14:11:45;3.80;91.60
12819;DHT22;6474;53.474;9.894;2022-12-07T14:14:18;3.80;91.60
12819;DHT22;6474;53.474;9.894;2022-12-07T14:16:56;3.80;91.60
12819;DHT22;6474;53.474;9.894;2022-12-07T14:19:44;3.80;91.60
12819;DHT22;6474;53.474;9.894;2022-12-07T14:22:27;3.80;91.60
12819;DHT22;6474;53.474;9.894;2022-12-07T14:25:00;3.80;91.60
12819;DHT22;6474;53.474;9.894;2022-12-07T14:27:33;3.80;91.60
12819;DHT22;6474;53.474;9.894;2022-12-07T14:30:03;3.80;91.50
12819;DHT22;6474;53.474;9.894;2022-12-07T14:32:34;3.80;91.50
12819;DHT22;6474;53.474;9.894;2022-12-07T14:35:08;3.80;91.50
12819;DHT22;6474;53.474;9.894;2022-12-07T14:37:37;3.80;91.40
12819;DHT22;6474;53.474;9.894;2022-12-07T14:40:06;3.70;91.40
12819;DHT22;6474;53.474;9.894;2022-12-07T14:42:36;3.70;91.70
12819;DHT22;6474;53.474;9.894;2022-12-07T14:45:10;3.60;91.30
12819;DHT22;6474;53.474;9.894;2022-12-07T14:47:40;3.60;91.20
12819;DHT22;6474;53.474;9.894;2022-12-07T14:50:28;3.50;91.10
12819;DHT22;6474;53.474;9.894;2022-12-07T14:53:00;3.50;91.10
12819;DHT22;6474;53.474;9.894;2022-12-07T14:55:49;3.40;91.10
12819;DHT22;6474;53.474;9.894;2022-12-07T14:58:18;3.30;91.10
12819;DHT22;6474;53.474;9.894;2022-12-07T15:00:46;3.30;91.10
12819;DHT22;6474;53.474;9.894;2022-12-07T15:03:15;3.20;91.10
12819;DHT22;6474;53.474;9.894;2022-12-07T15:05:42;3.10;91.10
12819;DHT22;6474;53.474;9.894;2022-12-07T15:08:12;3.10;91.10
12819;DHT22;6474;53.474;9.894;2022-12-07T15:10:40;3.00;91.10
12819;DHT22;6474;53.474;9.894;2022-12-07T15:13:08;2.90;91.10
12819;DHT22;6474;53.474;9.894;2022-12-07T15:15:55;2.90;91.20
12819;DHT22;6474;53.474;9.894;2022-12-07T15:18:23;2.90;91.30
12819;DHT22;6474;53.474;9.894;2022-12-07T15:20:51;2.90;91.30
12819;DHT22;6474;53.474;9.894;2022-12-07T15:23:19;2.80;91.20
12819;DHT22;6474;53.474;9.894;2022-12-07T15:25:48;2.80;91.20
12819;DHT22;6474;53.474;9.894;2022-12-07T15:28:16;2.80;91.20
12819;DHT22;6474;53.474;9.894;2022-12-07T15:30:44;2.80;91.20
12819;DHT22;6474;53.474;9.894;2022-12-07T15:33:13;2.80;91.20
12819;DHT22;6474;53.474;9.894;2022-12-07T15:35:42;2.70;91.20
12819;DHT22;6474;53.474;9.894;2022-12-07T15:38:11;2.70;91.20
12819;DHT22;6474;53.474;9.894;2022-12-07T15:40:39;2.70;91.20
12819;DHT22;6474;53.474;9.894;2022-12-07T15:43:08;2.70;91.20
12819;DHT22;6474;53.474;9.894;2022-12-07T15:45:57;2.70;91.20
12819;DHT22;6474;53.474;9.894;2022-12-07T15:48:25;2.70;91.20
12819;DHT22;6474;53.474;9.894;2022-12-07T15:51:01;2.60;91.10
12819;DHT22;6474;53.474;9.894;2022-12-07T15:53:29;2.60;91.10
12819;DHT22;6474;53.474;9.894;2022-12-07T15:55:57;2.50;91.10
12819;DHT22;6474;53.474;9.894;2022-12-07T15:58:25;2.50;91.10
12819;DHT22;6474;53.474;9.894;2022-12-07T16:00:53;2.40;91.10
12819;DHT22;6474;53.474;9.894;2022-12-07T16:03:20;2.40;91.10
12819;DHT22;6474;53.474;9.894;2022-12-07T16:05:50;2.30;91.00
12819;DHT22;6474;53.474;9.894;2022-12-07T16:08:18;2.30;91.00
12819;DHT22;6474;53.474;9.894;2022-12-07T16:10:46;2.20;91.00
12819;DHT22;6474;53.474;9.894;2022-12-07T16:13:14;2.20;91.10
12819;DHT22;6474;53.474;9.894;2022-12-07T16:15:42;2.10;91.00
12819;DHT22;6474;53.474;9.894;2022-12-07T16:18:10;2.10;91.00
12819;DHT22;6474;53.474;9.894;2022-12-07T16:20:38;2.10;91.00
12819;DHT22;6474;53.474;9.894;2022-12-07T16:23:08;2.00;91.00
12819;DHT22;6474;53.474;9.894;2022-12-07T16:25:35;2.00;91.10
12819;DHT22;6474;53.474;9.894;2022-12-07T16:28:03;2.00;91.10
12819;DHT22;6474;53.474;9.894;2022-12-07T16:30:31;1.90;91.20
12819;DHT22;6474;53.474;9.894;2022-12-07T16:32:59;1.90;91.20
12819;DHT22;6474;53.474;9.894;2022-12-07T16:35:28;1.90;91.20
12819;DHT22;6474;53.474;9.894;2022-12-07T16:37:56;1.90;91.20
12819;DHT22;6474;53.474;9.894;2022-12-07T16:40:25;1.90;91.20
12819;DHT22;6474;53.474;9.894;2022-12-07T16:42:52;1.90;91.20
12819;DHT22;6474;53.474;9.894;2022-12-07T16:45:21;1.80;91.20
12819;DHT22;6474;53.474;9.894;2022-12-07T16:47:48;1.80;91.10
12819;DHT22;6474;53.474;9.894;2022-12-07T16:50:16;1.80;91.10
12819;DHT22;6474;53.474;9.894;2022-12-07T16:52:44;1.80;91.10